LiveATC.Net - Listen to live air traffic control over the Internet!

Airport/ARTCC Code
Frequency Search
(e.g., 124.400, 128.75)
Site-wide search
 


Browse Feeds
Top 50 Feeds
Coverage Map
Bad Weather Areas

LiveATC FAQ
Offer LiveATC feed
Contact LiveATC.net
Press Inquiries

LiveATC on iPhone
LiveATC on Android

Windows Phone
Windows 8/10

LiveATC Mobile
(Mobile browser)

ATC Audio Archives
Interesting Recordings

LiveATC Forums

Home Page
About LiveATC.net
Make a Donation
Terms of Use
Privacy Policy

Canadian Air Freqs

AIRMETs/SIGMETs

FAA Airport Status
Nat'l Airspace Status
Arrival Demand Charts


Server Software By:
Icecast.org
Liquidsoap


Current Potentially Bad Weather Airports
(updated every 30 minutes - sorted alphabetically by ICAO code)



This page lists LiveATC.net airport areas that may be interesting to listen to because of challenging flying (weather) conditions. Challenging weather conditions include low ceilings, limited visibility, high or gusty winds, or thunderstorms.

Updated: Sun Dec 15 01:10:01 UTC 2019
Click on airport name to go to that airport area's feeds.

CYHU Tower #1 Saint-Hubert Airport (Montreal, CA-QC)
cyhuNearest METAR:
CYHU 150059Z AUTO 01008KT 2 1/4SM -UP BR BKN004 OVC025 03/03 A2896 RMK SLP810
CYHZ Del/Gnd/Twr/App #1 Halifax International Airport (Halifax, CA-NS)
WX MAP UNAVAILABLENearest METAR:
CYHZ 150048Z 17022G31KT 5SM RA BR BKN003 OVC013 14/13 A2951 RMK SF6SC2 SLP998 DENSITY ALT 900FT
CYKF Gnd/Twr Waterloo Airport (Waterloo, CA-ON)
cykfNearest METAR:
CYKF 150057Z AUTO 29017KT 2 1/4SM -RA BR OVC008 01/01 A2945 RMK ICG PAST HR SLP983
CYMX Ground/Radio Montreal-Mirabel International Airport (Montreal, CA-QC)
cymxNearest METAR:
CYMX 150000Z 04005G15KT 340V090 4SM -RA BR OVC004 02/02 A2901 RMK ST8 PRESFR SLP828
CYPQ UNICOM/Guard Peterborough Airport (Peterborough, CA-ON)
cypqNearest METAR:
CYPQ 150047Z AUTO 30017G23KT 6SM -SN BKN011 OVC031 01/01 A2928 RMK SLP923
CYQB App/Dep (Terminal/124.0) Quebec Jean Lesage International Airport (Quebec, CA-QC)
cyqbNearest METAR:
CYQB 150000Z CCA 07025G32KT 3SM -RA BR OVC004 02/02 A2917 WS RWY06 RMK SF8 PRESFR SLP883
CYQI/CZQM CTAF/FIC/Center Yarmouth Airport (Yarmouth, CA-NS)
WX MAP UNAVAILABLENearest METAR:
CYQI 150054Z 19018G28KT 1/2SM FG VV002 12/12 A2939 RMK FG8 SLP955 DENSITY ALT 500FT
CYQM App/Dep Greater Moncton International Airport (Moncton, CA-NB)
cyqmNearest METAR:
CYQM 150056Z 10004KT 3/4SM R06/P6000FT/D R29/6000FT/D -DZ BR OVC004 05/05 A2936 RMK ST8 SLP946
CYQT Ground/Tower Thunder Bay Airport (Thunder Bay, CA-ON)
cyqtNearest METAR:
CYQT 150000Z 33006KT 5SM -SN OVC026 M12/M17 A2989 RMK SC8 SLP140
CYSB Gnd/Twr/Center Sudbury Airport (Sudbury, CA-ON)
WX MAP UNAVAILABLENearest METAR:
CYSB 150032Z 33013G18KT 2 1/2SM -FZDZ -SN BR OVC003 M01/M01 A2939 RMK ST8 -FZDZ INTMT SLP970
CZUL ACC (Noranda Sector) Timmins Airport (Timmins, CA-QC)
WX MAP UNAVAILABLENearest METAR:
CYTS 150030Z 32010KT 5SM -FZDZ -SN FEW009 OVC018 M13/M15 A2956 RMK SF1ST8 SF TR SLP035
CYVO Gnd/RDO/Center Val-D'Or Airport (Val-D'Or, CA-QC)
WX MAP UNAVAILABLENearest METAR:
CYVO 150000Z 31011G18KT 1 1/2SM -SN OVC004 M03/M03 A2928 RMK ST8 SLP937
CYYR Gander Center Goose Bay Airport/CFB Goose Bay (Goose Bay, CA-NL)
WX MAP UNAVAILABLENearest METAR:
CYYR 150011Z 32002KT 12SM -SN FEW019 BKN024 OVC051 M18/M22 A3020 RMK SC2SC5SC1 SLP234
CYYT ATIS St. John's International Airport (St. John's, CA-NL)
WX MAP UNAVAILABLENearest METAR:
CYYT 150025Z 17012G18KT 12SM -SN OVC010 M01/M02 A3040 RMK SC8 SLP307
EFKU Tower/Approach Kuopio Airport (Siilinjarvi, Finland)
WX MAP UNAVAILABLENearest METAR:
EFKU 150050Z AUTO 12007KT 080V150 9999 -SN OVC006 00/M00 Q1001
EINN Twr/App #1 Shannon Airport (Shannon, Ireland)
WX MAP UNAVAILABLENearest METAR:
EINN 150030Z 28022G40KT 9999 -SHRA FEW012 BKN018CB BKN200 04/02 Q0982 NOSIG
ENGM Approach Oslo Gardermoen Airport (Oslo, Norway)
WX MAP UNAVAILABLENearest METAR:
ENGM 150050Z 03005KT 4100 -SNRA BKN005 00/00 Q0983
ENSO AFIS Stord Lufthavn Airport (Stord, Norway)
WX MAP UNAVAILABLENearest METAR:
ENSO 131850Z 13021G31KT CAVOK 06/M03 Q0980
ESPA Twr/Control Lulea Airport (Lulea, Sweden)
WX MAP UNAVAILABLENearest METAR:
ESPA 150050Z AUTO 13011KT 4300 -PL OVC003/// 00/M00 Q0998
EVRA Tower/Guard Riga International Airport (Riga, Latvia)
WX MAP UNAVAILABLENearest METAR:
EVRA 150050Z 16009KT 9999 -RA OVC004 02/01 Q0995 R18/290195 NOSIG
EYVI Twr/App/Misc Vilnius International Airport (Vilnius, Lithuania)
WX MAP UNAVAILABLENearest METAR:
EYVI 150050Z 16010KT 9000 -RA OVC003 02/02 Q0996 R19/2///95 NOSIG
KALB Approach/Departure Albany International Airport (Albany, US-NY)
kalbNearest METAR:
KALB 150051Z 20006KT 1/4SM R01/3500FT FG OVC002 07/06 A2913 RMK AO2 SLP864 T00720056
KAPA Gnd/Twr/Denver App Centennial Airport (Denver, US-CO)
kapaNearest METAR:
KAPA 150053Z 14005KT 9SM -SN FEW018 BKN060 BKN080 M02/M05 A2968 RMK AO2 SNB46 SLP080 P0000 T10171050
KASE Approach/Denver Center Aspen-Pitkin County Airport/Sardy Field (Aspen, US-CO)
kaseNearest METAR:
KASE 150053Z 06003KT 1/2SM SN FZFG VV005 M02/M04 A2971 RMK AO2 SNB2354 SLP047 P0003 T10221039
KASH Ground/FBO Boire Field Airport (Nashua, US-NH)
kashNearest METAR:
KASH 150056Z 00000KT 1/2SM FG OVC003 04/04 A2911 RMK AO2 RAE22 SLP864 P0000 T00440044
KAUG Del/CTAF Augusta State Airport (Augusta, US-ME)
kaugNearest METAR:
KAUG 150053Z AUTO 15003KT 1/4SM FG VV003 08/08 A2917 RMK AO2 RAE40 SLP878 P0002 T00780078
KBGR Del/Gnd/Twr Bangor International Airport (Bangor, US-ME)
kbgrNearest METAR:
KBGR 150053Z 15005KT 1SM R15/P6000FT -RA BR OVC005 11/11 A2921 RMK AO2 TWR VIS 1 1/2 RAB14E18B44DZB18E44 SLP890 P0002 T01110106
KBID CTAF Block Island State Airport (Block Island, US-RI)
kbidNearest METAR:
KBID 150056Z AUTO 22015G23KT 3SM BR OVC006 11/11 A2923 RMK AO2 PK WND 22027/0023 RAE11 CIG 004V009 SLP898 P0000 T01060106
MA/NH/RI/CT Area CTAF Fitchburg Municipal Airport (Fitchburg, US-MA)
ksfzNearest METAR:
KSFZ 150056Z AUTO 22011G21KT 10SM OVC008 13/13 A2916 RMK AO2 RAE48 CIG 007V012 SLP821 P0000 T01330128
MA/NH/RI/CT Area CTAF Fitchburg Municipal Airport (Fitchburg, US-MA)
keenNearest METAR:
KEEN 150056Z AUTO 00000KT 2 1/2SM -RA BR OVC007 06/06 A2908 RMK AO2 CIG 005V011 SLP855 P0001 T00610061 $
MA/NH/RI/CT Area CTAF Fitchburg Municipal Airport (Fitchburg, US-MA)
kfitNearest METAR:
KFIT 150052Z AUTO 00000KT 3/4SM BR OVC002 06/06 A2911 RMK AO2 SLP861 T00610056
MA/NH/RI/CT Area CTAF Fitchburg Municipal Airport (Fitchburg, US-MA)
kconNearest METAR:
KCON 150051Z AUTO 33003KT 1SM -RA BR VV003 07/07 A2909 RMK AO2 RAB12 SLP853 P0001 T00670067
MA/NH/RI/CT Area CTAF Fitchburg Municipal Airport (Fitchburg, US-MA)
kpymNearest METAR:
KPYM 150052Z AUTO 20017G26KT 10SM -RA OVC005 14/13 A2919 RMK AO2 PK WND 21026/0051 SLP882 P0001 T01390133
MA/NH/RI/CT Area CTAF Fitchburg Municipal Airport (Fitchburg, US-MA)
koreNearest METAR:
KORE 150052Z AUTO 19012G19KT 10SM OVC007 12/11 A2910 RMK AO2 RAB22E42 CIG 006V012 SLP857 P0000 T01220111
KBUF App/Dep Buffalo Niagara International Airport (Buffalo, US-NY)
kbufNearest METAR:
KBUF 150054Z 26014KT 2SM -SN BR OVC005 01/M01 A2942 RMK AO2 SLP970 P0002 T00111006 $
KCPR Tower/App Casper/Natrona County International Airport (Casper, US-WY)
kcprNearest METAR:
KCPR 150053Z 35008KT 1 1/2SM -SN BR OVC016 M04/M06 A2971 RMK AO2 SLP097 P0003 T10441056
KEAR AWOS Kearney Regional Airport (Kearney, US-NE)
kearNearest METAR:
KEAR 150056Z AUTO 10007KT 4SM -SN BR SCT027 OVC033 M05/M07 A2995 RMK AO2 SNB11 SLP167 P0000 T10501072 FZRANO
KGEG Del/Gnd/Twr/App Spokane International Airport (Spokane, US-WA)
kgegNearest METAR:
KGEG 150053Z 00000KT 10SM -FZDZ BKN005 OVC009 M01/M03 A2994 RMK AO2 FZDZB52 SLP157 P0000 I1000 T10061028
KGPT App/Dep Gulfport-Biloxi International Airport (Gulfport, US-MS)
kgptNearest METAR:
KGPT 150053Z AUTO 00000KT 3SM HZ OVC003 11/10 A2992 RMK AO2 SLP132 T01110100
KGRR Del/Gnd/Twr/App Gerald R. Ford International Airport (Grand Rapids, US-MI)
kgrrNearest METAR:
KGRR 150053Z 29011G21KT 6SM BR OVC009 M01/M03 A2970 RMK AO2 FZRAE02FZDZB02E51 SLP064 P0000 I1000 T10111033 $
KGUS Del/Gnd/Twr/App Grissom Air Reserve Base (Peru, US-IN)
kgusNearest METAR:
KGUS 150056Z AUTO 29014KT 9SM OVC006 M01/M01 A2977 RMK AO2 SLP092 T10061006 $
KHNB CTAF Huntingburg Airport (Huntingburg, US-IN)
khnbNearest METAR:
KHNB 150056Z AUTO 31008KT 5SM BR OVC009 03/02 A2989 RMK AO2 SLP126 T00280017
KHUL/KPQI/ZBW01/15 Houlton International Airport (Houlton, US-ME)
khulNearest METAR:
KHUL 150053Z AUTO 12009G14KT 1 1/2SM BR OVC010 04/03 A2924 RMK AO2 SLP905 T00440033
KHUL/KPQI/ZBW01/15 Houlton International Airport (Houlton, US-ME)
kpqiNearest METAR:
KPQI 150056Z AUTO 03005KT 2SM BR BKN005 OVC009 02/02 A2927 RMK AO2 UPE53 CIG 004V008 SLP940 P0000 T00220017
KHYA/KFMH Twr/Cape App Barnstable Municipal Airport-Boardman/Polando Field (Hyannis, US-MA)
kfmhNearest METAR:
KFMH 150050Z 21018G25KT 3SM BR OVC003 14/14 A2922
KHYA/KFMH Twr/Cape App Barnstable Municipal Airport-Boardman/Polando Field (Hyannis, US-MA)
khyaNearest METAR:
KHYA 150056Z 19012G22KT 1SM -RA BR VV002 12/11 A2922 RMK AO2 RAB10 SLP894 P0005 T01170106
KIAG Del/Gnd/Twr Niagara Falls International Airport (Niagara Falls, US-NY)
kiagNearest METAR:
KIAG 150057Z 26016KT 1 1/2SM -SN BR OVC005 01/00 A2943 RMK AO2 P0000 T00060000 $
KIND Ground Indianapolis International Airport (Indianapolis, US-IN)
kindNearest METAR:
KIND 150054Z 28017G24KT 5SM BR OVC009 01/M01 A2982 RMK AO2 SLP103 T00061011 $
KLCI Del/CTAF Laconia Municipal Airport (Laconia, US-NH)
klciNearest METAR:
KLCI 150056Z AUTO VRB03KT 10SM OVC009 07/07 A2909 RMK AO2 RAB28E49 CIG 006V013 SLP854 P0000 T00720072
KLXV CTAF Lake County Airport (Leadville, US-CO)
klxvNearest METAR:
KLXV 150053Z AUTO 32009G16KT 2 1/2SM -SN OVC032 M07/M09 A2967 RMK AO2 SLP024 P0000 T10671094
KMHT Del/Gnd/Twr Manchester Airport (Manchester, US-NH)
kmhtNearest METAR:
KMHT 150053Z 23003KT 1/4SM R35/3000V4000FT FG VV002 07/07 A2909 RMK AO2 RAB2358E12 SLP866 P0001 T00720067
KMSO Gnd/Twr/App/ZLC/ZSE Missoula International Airport (Missoula, US-MT)
kmsoNearest METAR:
KMSO 150053Z 00000KT 2 1/2SM -SN BR BKN024 BKN046 OVC080 M01/M02 A2986 RMK AO2 SNE32B44 SLP142 P0003 T10111017
KMVY Del/Gnd/Twr Martha's Vineyard Airport (Vineyard Haven, US-MA)
kmvyNearest METAR:
KMVY 150053Z AUTO 19018G27KT 1 3/4SM R24/6000VP6000FT BR OVC002 13/13 A2923 RMK AO2 PK WND 19029/0033 RAB2354E35 SLP897 P0002 T01330128
KMWA Gnd/Twr/CTAF Williamson County Regional Airport (Marion, US-IL)
kmwaNearest METAR:
KMWA 150045Z 34010KT 4SM BR OVC009 01/00 A2993
KOFF Gnd/Twr/App/ZMP Offutt Air Force Base (Omaha, US-NE)
koffNearest METAR:
KOFF 150056Z 35007KT 10SM BKN130 M07/M13 A3003 RMK AO2A SLP193 RVRNO $
KPEO CTAF Penn Yan Airport (Penn Yan, US-NY)
kpeoNearest METAR:
KPEO 150053Z AUTO 27013KT 3SM -SN BR OVC016 01/M01 A2931 RMK AO2 SLP934 P0000 T00111006 $
KPNE Del/Gnd/Twr/App Northeast Philadelphia Airport (Philadelphia, US-PA)
kpneNearest METAR:
KPNE 150054Z 28025G31KT 10SM OVC027 10/03 A2938 RMK AO2 PK WND 26031/0049 SLP949 T01000033
KPSC/KRLD/S98/ZSE Tri-Cities Airport (Pasco, US-WA)
kpscNearest METAR:
KPSC 150053Z 03004KT 10SM OVC008 02/00 A3002 RMK AO2 SLP169 T00220000
KPSM Gnd/Twr/App/GCA Portsmouth International Airport at Pease (Portsmouth, US-NH)
kpsmNearest METAR:
KPSM 150042Z 14011KT 3/4SM R34/P6000FT BR OVC001 12/12 A2912 RMK A02A SLP864
KPTK App/Dep Oakland County International Airport (Pontiac, US-MI)
kptkNearest METAR:
KPTK 150053Z 28012KT 4SM -SN BR OVC007 01/M01 A2961 RMK AO2 SLP035 P0000 T00061011
KPVC CTAF Provincetown Municipal Airport (Provincetown, US-MA)
kpvcNearest METAR:
KPVC 150056Z AUTO 19018G24KT 5SM -RA BR BKN003 OVC007 12/12 A2920 RMK AO2 PK WND 21026/0029 RAB10 SLP887 T01170117 PNO $
KPWM Gnd/Twr/App Portland International Jetport (Portland, US-ME)
kpwmNearest METAR:
KPWM 150051Z 16006KT 1/4SM FG VV002 11/09 A2915 RMK AO2 SLP869 T01110094
KROC Approach Greater Rochester International Airport (Rochester, US-NY)
krocNearest METAR:
KROC 150054Z 29014G22KT 3SM -SN BR BKN008 OVC012 01/M01 A2934 RMK AO2 CIG 006V011 SLP942 P0002 T00061006
KSYR Tower/Approach Syracuse Hancock International Airport (Syracuse, US-NY)
ksyrNearest METAR:
KSYR 150054Z 24015KT 2 1/2SM -SN BR SCT008 OVC014 01/M01 A2924 RMK AO2 SLP901 VIS 2V3 P0001 T00111006 $
KTAN CTAF Taunton Municipal Airport (Taunton, US-MA)
ktanNearest METAR:
KTAN 150052Z AUTO 20015G28KT 4SM BR OVC007 16/13 A2918 RMK AO2 PK WND 20028/0046 RAE27 CIG 006V011 SLP880 P0001 T01560133
KTVC Gnd/Twr/ZMP Cherry Capital Airport (Traverse City, US-MI)
ktvcNearest METAR:
KTVC 150029Z 34011G19KT 1 1/2SM -SN BR OVC008 01/M02 A2962 RMK AO2 TWR VIS 2 1/2 P0001 T00061017
KUUU CTAF/Del Newport State Airport (Newport, US-RI)
kuuuNearest METAR:
KUUU 150053Z AUTO 20010G26KT 3SM -RA BR OVC002 12/11 A2919 RMK AO2 PK WND 21026/0047 SLP884 P0000 T01220111
LFSB Tower EuroAirport Basel-Mulhouse-Freiburg (Basel, Switzerland)
WX MAP UNAVAILABLENearest METAR:
LFSB 150030Z AUTO 31005KT 9999 -RA NCD 08/07 Q1005 TEMPO 23020G35KT
LJLJ Radar Ljubljana Joze Pucnik Airport (Ljubljana, Slovenia)
WX MAP UNAVAILABLENearest METAR:
LJLJ 150030Z 31003KT 0400 R30/0600N FZFG VV001 M03/M04 Q1013 NOSIG
LPPR Approach #1 Porto Airport (Porto, Portugal)
WX MAP UNAVAILABLENearest METAR:
LPPR 150030Z 19015KT 9999 OVC004 13/13 Q1014
PADQ Gnd/Twr/ZAN Kodiak Airport (Kodiak, US-AK)
padqNearest METAR:
PADQ 150053Z 10025G31KT 2 1/2SM RA BKN013 OVC018 05/02 A2946 RMK AO2 PK WND 10034/0003 SLP976 P0012 T00500022 $
SBSR AFIS/App/Center Sao Jose do Rio Preto Airport (Sao Jose do Rio Preto, Brazil)
WX MAP UNAVAILABLENearest METAR:
SBSR 150000Z 02008KT 9999 -TSRA BKN020 FEW030CB BKN070 21/20 Q1018
UNOO Gnd/Tower/App Omsk Airport (Omsk, Russia)
WX MAP UNAVAILABLENearest METAR:
UNOO 150030Z 00000MPS 0100 R25/0350N FZFG NSC M14/M14 Q1032 R25/490540 NOSIG RMK QFE766
UUEE Twr/App/Radar Sheremetyevo Airport (Moscow, Russia)
WX MAP UNAVAILABLENearest METAR:
UUEE 150030Z 15005MPS 120V180 9000 OVC006 M01/M02 Q1012 REFZDZ R88/290051 TEMPO -FZRA
WBKS Gnd/Twr/App/Guard Sandakan Airport (Sandakan, Malaysia)
WX MAP UNAVAILABLENearest METAR:
WBKS 150000Z VRB02KT 9000 FEW010 SCT014 FEW016CB 25/24 Q1011 RETSRA
YPDN Gnd/Twr/App/Dep Darwin International Airport (Darwin, AU-NT)
WX MAP UNAVAILABLENearest METAR:
YPDN 150030Z 26003KT 9999 VCSH SCT025TCU 31/25 Q1009 FM0000 30008KT 9999 SCT030 INTER 0030/0200 VRB15G25KT 4000 SHRA SCT010 TEMPO 0200/0330 VRB20G40KT 1000 TSRA BKN010 SCT020CB